Nearby METAR Reports

 

KBFI - Seattle/Boeing, Washington, USA
Distance from station: S 10mi, 16km
Updated: Thu, 27-Apr-2017 10:53pm PDT
Mostly cloudy
Mostly cloudy
 Wind from varies
Wind: varies 3 mph , 6 km/h
Temperature: 48°F , 9°C
Dew Point: 39°F , 4°C
Humidity: 71%
Barometer: 30.19 inHg , 1022.4 hPa
Clouds: Mostly cloudy
Visibility: 10 miles , 16 km
Cloud details: Partly cloudy 2700 ft
Mostly cloudy 4000 ft
Mostly cloudy 10000 ft
2017/04/28 05:53 KBFI 280553Z VRB03KT 10SM SCT027 BKN040 BKN100 09/04 A3019 RMK AO2 SLP222 60000 T00940044 10139 20094 51023
KRNT - Renton, Washington, USA
Distance from station: SSE 14mi, 23km
Updated: Thu, 27-Apr-2017 10:53pm PDT
Overcast
Overcast
 Wind from calm
Wind: Calm
Temperature: 48°F , 9°C
Dew Point: 39°F , 4°C
Humidity: 71%
Barometer: 30.19 inHg , 1022.4 hPa
Clouds: Overcast
Visibility: 10 miles , 16 km
Cloud details: Mostly cloudy 3400 ft
Overcast 10000 ft
2017/04/28 05:53 KRNT 280553Z AUTO 00000KT 10SM BKN034 OVC100 09/04 A3019 RMK AO2 SLP226 T00940044 10133 20094 51023
 
KPAE - Everett, Washington, USA
Distance from station: N 15mi, 25km
Updated: Thu, 27-Apr-2017 10:53pm PDT
Overcast
Overcast
 Wind from varies
Wind: varies 6 mph , 9 km/h
Temperature: 46°F , 8°C
Wind Chill: 43°F , 6°C
Dew Point: 39°F , 4°C
Humidity: 76%
Barometer: 30.18 inHg , 1022 hPa
Clouds: Overcast
Visibility: 10 miles , 16 km
Cloud details: Mostly cloudy 4400 ft
Overcast 6000 ft
2017/04/28 05:53 KPAE 280553Z AUTO VRB05KT 10SM BKN044 OVC060 08/04 A3018 RMK AO2 SLP223 T00780039 10106 20078 51019
KSEA - Seattle/Metro, Washington, USA
Distance from station: S 17mi, 27km
Updated: Thu, 27-Apr-2017 11:05pm PDT
Overcast
Overcast
 Wind from NE
Wind: NE 3 mph , 6 km/h
Temperature: 48°F , 9°C
Dew Point: 39°F , 4°C
Humidity: 71%
Barometer: 30.19 inHg , 1022.4 hPa
Clouds: Overcast
Visibility: 10 miles , 16 km
Cloud details: Mostly cloudy 2500 ft
Overcast 3300 ft
2017/04/28 06:05 KSEA 280605Z 04003KT 10SM BKN025 OVC033 09/04 A3019 RMK AO2 T00940039
 
KPWT - Bremerton Ntnl, Washington, USA
Distance from station: SW 24mi, 39km
Updated: Wed, 19-Apr-2017 4:55am PDT
NOT Current

 
2017/04/19 11:55 KPWT 191155Z AUTO RMK AO1
KTIW - Tacoma, Washington, USA
Distance from station: SSW 32mi, 52km
Updated: Thu, 27-Apr-2017 10:53pm PDT
Light rain, Overcast
Light rain, Overcast
 Wind from SSE
Wind: SSE 3 mph , 6 km/h
Temperature: 45°F , 7°C
Dew Point: 43°F , 6°C
Humidity: 93%
Barometer: 30.20 inHg , 1022.7 hPa
Summary: Light rain
Clouds: Overcast
Visibility: 7 miles , 11 km
Cloud details: Few Clouds 1800 ft
Partly cloudy 2800 ft
Overcast 3400 ft
2017/04/28 05:53 KTIW 280553Z AUTO 15003KT 7SM -RA FEW018 SCT028 OVC034 07/06 A3020 RMK AO2 SLP228 P0005 60021 T00720056 10111 20072 51026
 
KAWO - Arlington Muni, Washington, USA
Distance from station: N 33mi, 54km
Updated: Thu, 27-Apr-2017 10:55pm PDT
Overcast
Overcast
 Wind from NW
Wind: NW 10 mph , 17 km/h
Temperature: 48°F , 9°C
Wind Chill: 44°F , 7°C
Dew Point: 34°F , 1°C
Humidity: 58%
Barometer: 30.21 inHg , 1023 hPa
Clouds: Overcast
Visibility: 10 miles , 16 km
Cloud details: Overcast 5000 ft
2017/04/28 05:55 KAWO 280555Z AUTO 31009KT 10SM OVC050 09/01 A3021 RMK AO1 10120 20080 52024
KTCM - Tacoma/Mc Chord, Washington, USA
Distance from station: S 41mi, 65km
Updated: Thu, 27-Apr-2017 11:03pm PDT
Light rain, Mist, Overcast
Light rain, Mist, Overcast
 Wind from S
Wind: S 7 mph , 11 km/h
Temperature: 45°F , 7°C
Wind Chill: 41°F , 5°C
Dew Point: 45°F , 7°C
Humidity: 100%
Barometer: 30.19 inHg , 1022.4 hPa
Summary: Light rain, Mist
Clouds: Overcast
Visibility: 6 miles , 10 km
Cloud details: Few Clouds 1200 ft
Partly cloudy 2400 ft
Mostly cloudy 3200 ft
Overcast 4100 ft
2017/04/28 06:03 KTCM 280603Z AUTO 18006KT 6SM -RA BR FEW012 SCT024 BKN032 OVC041 07/07 A3019 RMK AO2 SLPNO $
 
KPLU - Puyallup/Thun, Washington, USA
Distance from station: S 41mi, 66km
Updated: Thu, 27-Apr-2017 10:55pm PDT
Light Drizzle
Light Drizzle
 Wind from calm
Wind: Calm
Temperature: 45°F , 7°C
Dew Point: 45°F , 7°C
Humidity: 100%
Barometer: 30.19 inHg , 1022.4 hPa
Summary: Light Drizzle
Visibility: 10 miles , 16 km
2017/04/28 05:55 KPLU 280555Z AUTO 00000KT 10SM -DZ 07/07 A3019 RMK AO2
KGRF - Fort Lewis/Gray, Washington, USA
Distance from station: SSW 45mi, 72km
Updated: Thu, 27-Apr-2017 10:55pm PDT
Light rain, Showers, Mostly cloudy
Light rain, Showers, Mostly cloudy
 Wind from ESE
Wind: ESE 5 mph , 7 km/h
Temperature: 45°F , 7°C
Wind Chill: 42°F , 6°C
Dew Point: 43°F , 6°C
Humidity: 93%
Barometer: 30.22 inHg , 1023.4 hPa
Summary: Light rain, Showers
Clouds: Mostly cloudy
Visibility: 10 miles , 16 km
Cloud details: Few Clouds 2500 ft
Mostly cloudy 3000 ft
Mostly cloudy 4000 ft
2017/04/28 05:55 KGRF 280555Z 11004KT 10SM -SHRA FEW025 BKN030 BKN040 07/06 A3022 RMK AO2A SHRAB0420 SLP236 WND DATA ESTMD ALSTG/SLP ESTMD P0005 60005 T00740061 10148 20095 51023
 
KNUW - Whidbey Is. Nas, Washington, USA
Distance from station: NNW 48mi, 77km
Updated: Thu, 27-Apr-2017 10:56pm PDT
Partly cloudy
Partly cloudy
 Wind from W
Wind: W 17 mph , 28 km/h
Temperature: 50°F , 10°C
Wind Chill: 44°F , 7°C
Dew Point: 39°F , 4°C
Humidity: 67%
Barometer: 30.22 inHg , 1023.4 hPa
Clouds: Partly cloudy
Visibility: 10 miles , 16 km
Cloud details: Few Clouds 3000 ft
Partly cloudy 6000 ft
Partly cloudy 25000 ft
2017/04/28 05:56 KNUW 280556Z 27015KT 10SM FEW030 SCT060 SCT250 10/04 A3022 RMK AO2 PK WND 28026/0515 SLP231 T01000044 10122 20100 51022 $
KSHN - Shelton, Washington, USA
Distance from station: SW 50mi, 80km
Updated: Thu, 27-Apr-2017 10:53pm PDT
Mostly cloudy
Mostly cloudy
 Wind from WSW
Wind: WSW 7 mph , 11 km/h
Temperature: 43°F , 6°C
Wind Chill: 39°F , 4°C
Dew Point: 37°F , 3°C
Humidity: 81%
Barometer: 30.16 inHg , 1021.3 hPa
Clouds: Mostly cloudy
Visibility: 10 miles , 16 km
Cloud details: Mostly cloudy 3800 ft
2017/04/28 05:53 KSHN 280553Z AUTO 24006KT 10SM BKN038 06/03 A3016 RMK AO2 RAB16E28 SLP216 P0000 60000 T00610028 10139 20061 51018